sensor_id;sensor_type;location;lat;lon;timestamp;P1;durP1;ratioP1;P2;durP2;ratioP2
82873;SDS011;72647;51.622;7.540;2024-01-30T00:01:03;18.90;;;9.23;;
82873;SDS011;72647;51.622;7.540;2024-01-30T00:03:03;19.60;;;9.00;;
82873;SDS011;72647;51.622;7.540;2024-01-30T00:05:04;20.75;;;9.60;;
82873;SDS011;72647;51.622;7.540;2024-01-30T00:07:04;21.13;;;9.30;;
82873;SDS011;72647;51.622;7.540;2024-01-30T00:09:04;19.63;;;9.40;;
82873;SDS011;72647;51.622;7.540;2024-01-30T00:11:05;20.08;;;8.95;;
82873;SDS011;72647;51.622;7.540;2024-01-30T00:13:05;18.93;;;9.37;;
82873;SDS011;72647;51.622;7.540;2024-01-30T00:15:05;17.43;;;9.63;;
82873;SDS011;72647;51.622;7.540;2024-01-30T00:17:08;18.67;;;9.38;;
82873;SDS011;72647;51.622;7.540;2024-01-30T00:19:09;18.63;;;9.47;;
82873;SDS011;72647;51.622;7.540;2024-01-30T00:21:11;18.58;;;9.57;;
82873;SDS011;72647;51.622;7.540;2024-01-30T00:23:11;17.13;;;8.40;;
82873;SDS011;72647;51.622;7.540;2024-01-30T00:25:11;19.83;;;10.17;;
82873;SDS011;72647;51.622;7.540;2024-01-30T00:27:11;21.80;;;10.07;;
82873;SDS011;72647;51.622;7.540;2024-01-30T00:29:12;20.50;;;8.63;;
82873;SDS011;72647;51.622;7.540;2024-01-30T00:31:12;20.25;;;9.35;;
82873;SDS011;72647;51.622;7.540;2024-01-30T00:33:12;16.53;;;8.87;;
82873;SDS011;72647;51.622;7.540;2024-01-30T00:35:12;19.90;;;8.97;;
82873;SDS011;72647;51.622;7.540;2024-01-30T00:37:12;19.07;;;8.53;;
82873;SDS011;72647;51.622;7.540;2024-01-30T00:39:13;18.23;;;8.90;;
82873;SDS011;72647;51.622;7.540;2024-01-30T00:41:17;15.73;;;8.65;;
82873;SDS011;72647;51.622;7.540;2024-01-30T00:43:17;15.38;;;8.55;;
82873;SDS011;72647;51.622;7.540;2024-01-30T00:45:17;19.95;;;9.02;;
82873;SDS011;72647;51.622;7.540;2024-01-30T00:47:18;19.48;;;8.38;;
82873;SDS011;72647;51.622;7.540;2024-01-30T00:49:18;16.17;;;8.10;;
82873;SDS011;72647;51.622;7.540;2024-01-30T00:51:18;17.43;;;8.97;;
82873;SDS011;72647;51.622;7.540;2024-01-30T00:53:19;19.73;;;9.50;;
82873;SDS011;72647;51.622;7.540;2024-01-30T00:55:19;17.08;;;8.98;;
82873;SDS011;72647;51.622;7.540;2024-01-30T00:57:19;20.83;;;8.77;;
82873;SDS011;72647;51.622;7.540;2024-01-30T00:59:19;17.57;;;8.27;;
82873;SDS011;72647;51.622;7.540;2024-01-30T01:01:19;16.13;;;7.87;;
82873;SDS011;72647;51.622;7.540;2024-01-30T01:03:20;18.07;;;8.17;;
82873;SDS011;72647;51.622;7.540;2024-01-30T01:05:20;18.40;;;7.90;;
82873;SDS011;72647;51.622;7.540;2024-01-30T01:09:21;15.52;;;7.95;;
82873;SDS011;72647;51.622;7.540;2024-01-30T01:11:22;18.63;;;7.90;;
82873;SDS011;72647;51.622;7.540;2024-01-30T01:13:22;16.10;;;7.87;;
82873;SDS011;72647;51.622;7.540;2024-01-30T01:15:22;15.73;;;8.00;;
82873;SDS011;72647;51.622;7.540;2024-01-30T01:17:22;19.33;;;8.53;;
82873;SDS011;72647;51.622;7.540;2024-01-30T01:19:22;17.03;;;8.23;;
82873;SDS011;72647;51.622;7.540;2024-01-30T01:21:23;18.37;;;8.80;;
82873;SDS011;72647;51.622;7.540;2024-01-30T01:23:23;15.37;;;7.57;;
82873;SDS011;72647;51.622;7.540;2024-01-30T01:25:23;15.48;;;8.32;;
82873;SDS011;72647;51.622;7.540;2024-01-30T01:27:23;15.87;;;8.07;;
82873;SDS011;72647;51.622;7.540;2024-01-30T01:29:24;14.67;;;8.03;;
82873;SDS011;72647;51.622;7.540;2024-01-30T01:31:28;17.77;;;7.82;;
82873;SDS011;72647;51.622;7.540;2024-01-30T01:33:29;15.90;;;8.18;;
82873;SDS011;72647;51.622;7.540;2024-01-30T01:35:30;17.38;;;8.40;;
82873;SDS011;72647;51.622;7.540;2024-01-30T01:37:30;15.13;;;7.27;;
82873;SDS011;72647;51.622;7.540;2024-01-30T01:39:30;19.23;;;8.23;;
82873;SDS011;72647;51.622;7.540;2024-01-30T01:41:31;14.53;;;7.63;;
82873;SDS011;72647;51.622;7.540;2024-01-30T01:43:32;17.70;;;8.38;;
82873;SDS011;72647;51.622;7.540;2024-01-30T01:45:32;18.57;;;8.00;;
82873;SDS011;72647;51.622;7.540;2024-01-30T01:47:32;16.05;;;7.80;;
82873;SDS011;72647;51.622;7.540;2024-01-30T01:49:32;19.92;;;8.52;;
82873;SDS011;72647;51.622;7.540;2024-01-30T01:51:33;15.60;;;7.60;;
82873;SDS011;72647;51.622;7.540;2024-01-30T01:53:34;17.20;;;7.97;;
82873;SDS011;72647;51.622;7.540;2024-01-30T01:55:34;16.47;;;7.77;;
82873;SDS011;72647;51.622;7.540;2024-01-30T01:57:35;18.17;;;8.38;;
82873;SDS011;72647;51.622;7.540;2024-01-30T01:59:36;18.15;;;8.38;;
82873;SDS011;72647;51.622;7.540;2024-01-30T02:01:36;18.20;;;8.32;;
82873;SDS011;72647;51.622;7.540;2024-01-30T02:03:37;15.95;;;8.00;;
82873;SDS011;72647;51.622;7.540;2024-01-30T02:05:38;17.08;;;7.90;;
82873;SDS011;72647;51.622;7.540;2024-01-30T02:07:39;15.73;;;7.80;;
82873;SDS011;72647;51.622;7.540;2024-01-30T02:09:40;14.57;;;7.45;;
82873;SDS011;72647;51.622;7.540;2024-01-30T02:11:40;13.77;;;6.73;;
82873;SDS011;72647;51.622;7.540;2024-01-30T02:13:41;14.95;;;7.72;;
82873;SDS011;72647;51.622;7.540;2024-01-30T02:15:41;15.10;;;7.43;;
82873;SDS011;72647;51.622;7.540;2024-01-30T02:17:41;14.57;;;7.97;;
82873;SDS011;72647;51.622;7.540;2024-01-30T02:19:42;15.52;;;7.70;;
82873;SDS011;72647;51.622;7.540;2024-01-30T02:21:42;13.82;;;7.25;;
82873;SDS011;72647;51.622;7.540;2024-01-30T02:23:46;15.55;;;7.95;;
82873;SDS011;72647;51.622;7.540;2024-01-30T02:25:47;16.33;;;7.75;;
82873;SDS011;72647;51.622;7.540;2024-01-30T02:27:47;15.50;;;7.32;;
82873;SDS011;72647;51.622;7.540;2024-01-30T02:29:47;15.23;;;7.67;;
82873;SDS011;72647;51.622;7.540;2024-01-30T02:31:47;14.33;;;7.57;;
82873;SDS011;72647;51.622;7.540;2024-01-30T02:33:48;14.63;;;7.03;;
82873;SDS011;72647;51.622;7.540;2024-01-30T02:35:48;17.10;;;8.07;;
82873;SDS011;72647;51.622;7.540;2024-01-30T02:37:48;15.48;;;7.43;;
82873;SDS011;72647;51.622;7.540;2024-01-30T02:39:49;14.93;;;7.10;;
82873;SDS011;72647;51.622;7.540;2024-01-30T02:41:49;13.87;;;7.30;;
82873;SDS011;72647;51.622;7.540;2024-01-30T02:43:49;15.33;;;7.10;;
82873;SDS011;72647;51.622;7.540;2024-01-30T02:45:49;15.07;;;7.17;;
82873;SDS011;72647;51.622;7.540;2024-01-30T02:47:49;13.37;;;7.10;;
82873;SDS011;72647;51.622;7.540;2024-01-30T02:49:50;14.53;;;7.70;;
82873;SDS011;72647;51.622;7.540;2024-01-30T02:51:51;13.33;;;7.47;;
82873;SDS011;72647;51.622;7.540;2024-01-30T02:53:51;13.65;;;7.50;;
82873;SDS011;72647;51.622;7.540;2024-01-30T02:55:51;15.93;;;7.03;;
82873;SDS011;72647;51.622;7.540;2024-01-30T02:57:51;13.77;;;7.07;;
82873;SDS011;72647;51.622;7.540;2024-01-30T02:59:51;15.77;;;7.53;;
82873;SDS011;72647;51.622;7.540;2024-01-30T03:01:52;13.53;;;7.23;;
82873;SDS011;72647;51.622;7.540;2024-01-30T03:03:52;14.90;;;7.33;;
82873;SDS011;72647;51.622;7.540;2024-01-30T03:05:52;15.97;;;7.17;;
82873;SDS011;72647;51.622;7.540;2024-01-30T03:07:52;17.63;;;7.70;;
82873;SDS011;72647;51.622;7.540;2024-01-30T03:09:53;15.80;;;8.00;;
82873;SDS011;72647;51.622;7.540;2024-01-30T03:11:57;16.92;;;7.18;;
82873;SDS011;72647;51.622;7.540;2024-01-30T03:13:57;16.58;;;7.38;;
82873;SDS011;72647;51.622;7.540;2024-01-30T03:16:01;11.88;;;6.78;;
82873;SDS011;72647;51.622;7.540;2024-01-30T03:18:02;15.40;;;7.05;;
82873;SDS011;72647;51.622;7.540;2024-01-30T03:20:04;11.75;;;6.78;;
82873;SDS011;72647;51.622;7.540;2024-01-30T03:22:05;17.15;;;7.80;;
82873;SDS011;72647;51.622;7.540;2024-01-30T03:24:05;14.88;;;7.25;;
82873;SDS011;72647;51.622;7.540;2024-01-30T03:26:05;14.07;;;6.70;;
82873;SDS011;72647;51.622;7.540;2024-01-30T03:28:06;14.13;;;7.72;;
82873;SDS011;72647;51.622;7.540;2024-01-30T03:30:07;15.30;;;6.60;;
82873;SDS011;72647;51.622;7.540;2024-01-30T03:32:07;15.80;;;7.38;;
82873;SDS011;72647;51.622;7.540;2024-01-30T03:34:07;14.00;;;6.83;;
82873;SDS011;72647;51.622;7.540;2024-01-30T03:36:08;13.77;;;7.77;;
82873;SDS011;72647;51.622;7.540;2024-01-30T03:38:08;13.43;;;6.70;;
82873;SDS011;72647;51.622;7.540;2024-01-30T03:40:09;14.63;;;7.53;;
82873;SDS011;72647;51.622;7.540;2024-01-30T03:42:09;14.93;;;7.47;;
82873;SDS011;72647;51.622;7.540;2024-01-30T03:44:09;15.77;;;6.90;;
82873;SDS011;72647;51.622;7.540;2024-01-30T03:46:11;15.68;;;6.85;;
82873;SDS011;72647;51.622;7.540;2024-01-30T03:48:11;15.10;;;7.55;;
82873;SDS011;72647;51.622;7.540;2024-01-30T03:50:12;16.40;;;8.25;;
82873;SDS011;72647;51.622;7.540;2024-01-30T03:52:12;14.37;;;6.50;;
82873;SDS011;72647;51.622;7.540;2024-01-30T03:54:12;14.48;;;6.95;;
82873;SDS011;72647;51.622;7.540;2024-01-30T03:56:12;15.50;;;6.85;;
82873;SDS011;72647;51.622;7.540;2024-01-30T03:58:13;17.80;;;7.68;;
82873;SDS011;72647;51.622;7.540;2024-01-30T04:00:14;15.83;;;7.97;;
82873;SDS011;72647;51.622;7.540;2024-01-30T04:02:14;15.32;;;6.95;;
82873;SDS011;72647;51.622;7.540;2024-01-30T04:04:14;16.63;;;7.43;;
82873;SDS011;72647;51.622;7.540;2024-01-30T04:06:15;16.67;;;7.40;;
82873;SDS011;72647;51.622;7.540;2024-01-30T04:08:15;13.77;;;7.40;;
82873;SDS011;72647;51.622;7.540;2024-01-30T04:10:16;13.93;;;6.77;;
82873;SDS011;72647;51.622;7.540;2024-01-30T04:12:16;14.02;;;6.85;;
82873;SDS011;72647;51.622;7.540;2024-01-30T04:14:16;15.32;;;7.60;;
82873;SDS011;72647;51.622;7.540;2024-01-30T04:16:20;14.57;;;7.47;;
82873;SDS011;72647;51.622;7.540;2024-01-30T04:18:21;15.82;;;7.53;;
82873;SDS011;72647;51.622;7.540;2024-01-30T04:20:21;16.60;;;7.80;;
82873;SDS011;72647;51.622;7.540;2024-01-30T04:22:22;16.07;;;7.10;;
82873;SDS011;72647;51.622;7.540;2024-01-30T04:24:22;16.60;;;7.83;;
82873;SDS011;72647;51.622;7.540;2024-01-30T04:26:22;19.73;;;7.73;;
82873;SDS011;72647;51.622;7.540;2024-01-30T04:28:22;16.20;;;7.17;;
82873;SDS011;72647;51.622;7.540;2024-01-30T04:30:22;16.57;;;7.40;;
82873;SDS011;72647;51.622;7.540;2024-01-30T04:32:23;17.30;;;7.70;;
82873;SDS011;72647;51.622;7.540;2024-01-30T04:34:23;16.02;;;7.60;;
82873;SDS011;72647;51.622;7.540;2024-01-30T04:36:23;15.07;;;7.47;;
82873;SDS011;72647;51.622;7.540;2024-01-30T04:38:23;14.50;;;7.07;;
82873;SDS011;72647;51.622;7.540;2024-01-30T04:40:24;13.57;;;7.37;;
82873;SDS011;72647;51.622;7.540;2024-01-30T04:42:24;17.23;;;7.77;;
82873;SDS011;72647;51.622;7.540;2024-01-30T04:44:24;12.73;;;7.30;;
82873;SDS011;72647;51.622;7.540;2024-01-30T04:46:24;17.80;;;7.88;;
82873;SDS011;72647;51.622;7.540;2024-01-30T04:48:25;18.07;;;8.00;;
82873;SDS011;72647;51.622;7.540;2024-01-30T04:50:25;14.23;;;6.87;;
82873;SDS011;72647;51.622;7.540;2024-01-30T04:54:26;15.20;;;7.13;;
82873;SDS011;72647;51.622;7.540;2024-01-30T04:56:27;14.37;;;7.37;;
82873;SDS011;72647;51.622;7.540;2024-01-30T04:58:27;17.33;;;7.60;;
82873;SDS011;72647;51.622;7.540;2024-01-30T05:00:27;14.10;;;7.20;;
82873;SDS011;72647;51.622;7.540;2024-01-30T05:02:27;16.43;;;8.40;;
82873;SDS011;72647;51.622;7.540;2024-01-30T05:04:28;15.32;;;7.78;;
82873;SDS011;72647;51.622;7.540;2024-01-30T05:06:28;20.33;;;9.27;;
82873;SDS011;72647;51.622;7.540;2024-01-30T05:08:28;19.25;;;8.65;;
82873;SDS011;72647;51.622;7.540;2024-01-30T05:10:28;19.07;;;8.67;;
82873;SDS011;72647;51.622;7.540;2024-01-30T05:12:29;20.67;;;9.63;;
82873;SDS011;72647;51.622;7.540;2024-01-30T05:14:29;16.67;;;8.20;;
82873;SDS011;72647;51.622;7.540;2024-01-30T05:16:30;19.67;;;8.97;;
82873;SDS011;72647;51.622;7.540;2024-01-30T05:18:30;17.53;;;7.80;;
82873;SDS011;72647;51.622;7.540;2024-01-30T05:20:30;16.00;;;8.10;;
82873;SDS011;72647;51.622;7.540;2024-01-30T05:22:30;20.90;;;8.70;;
82873;SDS011;72647;51.622;7.540;2024-01-30T05:24:31;17.70;;;8.27;;
82873;SDS011;72647;51.622;7.540;2024-01-30T05:26:32;18.20;;;8.43;;
82873;SDS011;72647;51.622;7.540;2024-01-30T05:28:32;18.80;;;7.60;;
82873;SDS011;72647;51.622;7.540;2024-01-30T05:30:32;20.98;;;9.63;;
82873;SDS011;72647;51.622;7.540;2024-01-30T05:32:33;21.00;;;9.37;;
82873;SDS011;72647;51.622;7.540;2024-01-30T05:34:33;20.00;;;9.03;;
82873;SDS011;72647;51.622;7.540;2024-01-30T05:36:33;18.57;;;9.27;;
82873;SDS011;72647;51.622;7.540;2024-01-30T05:38:33;20.60;;;9.47;;
82873;SDS011;72647;51.622;7.540;2024-01-30T05:40:33;20.87;;;9.53;;
82873;SDS011;72647;51.622;7.540;2024-01-30T05:42:34;20.80;;;8.95;;
82873;SDS011;72647;51.622;7.540;2024-01-30T05:44:34;19.13;;;8.53;;
82873;SDS011;72647;51.622;7.540;2024-01-30T05:46:35;18.80;;;8.50;;
82873;SDS011;72647;51.622;7.540;2024-01-30T05:48:35;17.88;;;8.52;;
82873;SDS011;72647;51.622;7.540;2024-01-30T05:50:35;18.80;;;8.97;;
82873;SDS011;72647;51.622;7.540;2024-01-30T05:52:35;16.83;;;8.20;;
82873;SDS011;72647;51.622;7.540;2024-01-30T05:54:35;16.93;;;8.27;;
82873;SDS011;72647;51.622;7.540;2024-01-30T05:56:36;21.07;;;8.03;;
82873;SDS011;72647;51.622;7.540;2024-01-30T05:58:36;16.20;;;8.80;;
82873;SDS011;72647;51.622;7.540;2024-01-30T06:00:37;17.50;;;8.15;;
82873;SDS011;72647;51.622;7.540;2024-01-30T06:02:37;17.83;;;8.20;;
82873;SDS011;72647;51.622;7.540;2024-01-30T06:04:37;19.50;;;8.70;;
82873;SDS011;72647;51.622;7.540;2024-01-30T06:06:37;17.27;;;8.50;;
82873;SDS011;72647;51.622;7.540;2024-01-30T06:08:38;19.23;;;8.47;;
82873;SDS011;72647;51.622;7.540;2024-01-30T06:10:38;17.77;;;8.67;;
82873;SDS011;72647;51.622;7.540;2024-01-30T06:12:39;22.88;;;9.45;;
82873;SDS011;72647;51.622;7.540;2024-01-30T06:14:39;15.38;;;8.10;;
82873;SDS011;72647;51.622;7.540;2024-01-30T06:16:42;17.65;;;8.48;;
82873;SDS011;72647;51.622;7.540;2024-01-30T06:18:42;16.23;;;8.43;;
82873;SDS011;72647;51.622;7.540;2024-01-30T06:20:42;16.37;;;8.57;;
82873;SDS011;72647;51.622;7.540;2024-01-30T06:22:42;16.67;;;8.33;;
82873;SDS011;72647;51.622;7.540;2024-01-30T06:24:43;15.70;;;8.43;;
82873;SDS011;72647;51.622;7.540;2024-01-30T06:26:44;18.10;;;8.93;;
82873;SDS011;72647;51.622;7.540;2024-01-30T06:28:45;21.07;;;8.90;;
82873;SDS011;72647;51.622;7.540;2024-01-30T06:30:45;16.23;;;8.30;;
82873;SDS011;72647;51.622;7.540;2024-01-30T06:32:45;17.93;;;8.43;;
82873;SDS011;72647;51.622;7.540;2024-01-30T06:34:45;15.97;;;7.97;;
82873;SDS011;72647;51.622;7.540;2024-01-30T06:36:45;20.60;;;7.77;;
82873;SDS011;72647;51.622;7.540;2024-01-30T06:38:46;15.13;;;7.57;;
82873;SDS011;72647;51.622;7.540;2024-01-30T06:40:46;15.17;;;7.97;;
82873;SDS011;72647;51.622;7.540;2024-01-30T06:42:46;17.93;;;8.10;;
82873;SDS011;72647;51.622;7.540;2024-01-30T06:44:46;15.03;;;7.73;;
82873;SDS011;72647;51.622;7.540;2024-01-30T06:46:46;16.33;;;7.73;;
82873;SDS011;72647;51.622;7.540;2024-01-30T06:48:47;19.53;;;7.97;;
82873;SDS011;72647;51.622;7.540;2024-01-30T06:50:47;18.93;;;8.80;;
82873;SDS011;72647;51.622;7.540;2024-01-30T06:52:48;16.08;;;8.27;;
82873;SDS011;72647;51.622;7.540;2024-01-30T06:54:48;17.95;;;8.73;;
82873;SDS011;72647;51.622;7.540;2024-01-30T06:56:48;17.45;;;8.68;;
82873;SDS011;72647;51.622;7.540;2024-01-30T06:58:49;15.95;;;7.78;;
82873;SDS011;72647;51.622;7.540;2024-01-30T07:00:50;15.95;;;7.82;;
82873;SDS011;72647;51.622;7.540;2024-01-30T07:02:50;16.00;;;8.50;;
82873;SDS011;72647;51.622;7.540;2024-01-30T07:04:50;15.83;;;8.23;;
82873;SDS011;72647;51.622;7.540;2024-01-30T07:06:50;17.37;;;8.33;;
82873;SDS011;72647;51.622;7.540;2024-01-30T07:08:53;15.23;;;8.02;;
82873;SDS011;72647;51.622;7.540;2024-01-30T07:10:53;16.63;;;8.00;;
82873;SDS011;72647;51.622;7.540;2024-01-30T07:12:55;18.73;;;8.90;;
82873;SDS011;72647;51.622;7.540;2024-01-30T07:14:55;20.77;;;8.30;;
82873;SDS011;72647;51.622;7.540;2024-01-30T07:16:56;18.85;;;8.77;;
82873;SDS011;72647;51.622;7.540;2024-01-30T07:18:56;14.87;;;8.00;;
82873;SDS011;72647;51.622;7.540;2024-01-30T07:20:56;17.47;;;8.77;;
82873;SDS011;72647;51.622;7.540;2024-01-30T07:22:59;15.33;;;8.50;;
82873;SDS011;72647;51.622;7.540;2024-01-30T07:25:00;14.15;;;8.40;;
82873;SDS011;72647;51.622;7.540;2024-01-30T07:27:00;15.48;;;7.88;;
82873;SDS011;72647;51.622;7.540;2024-01-30T07:29:00;14.23;;;7.67;;
82873;SDS011;72647;51.622;7.540;2024-01-30T07:31:01;14.93;;;8.23;;
82873;SDS011;72647;51.622;7.540;2024-01-30T07:33:01;18.73;;;8.60;;
82873;SDS011;72647;51.622;7.540;2024-01-30T07:35:02;14.00;;;7.47;;
82873;SDS011;72647;51.622;7.540;2024-01-30T07:37:03;15.52;;;8.00;;
82873;SDS011;72647;51.622;7.540;2024-01-30T07:39:03;16.37;;;8.20;;
82873;SDS011;72647;51.622;7.540;2024-01-30T07:41:03;17.77;;;7.93;;
82873;SDS011;72647;51.622;7.540;2024-01-30T07:43:03;17.47;;;8.30;;
82873;SDS011;72647;51.622;7.540;2024-01-30T07:45:04;16.03;;;8.20;;
82873;SDS011;72647;51.622;7.540;2024-01-30T07:47:04;15.48;;;8.48;;
82873;SDS011;72647;51.622;7.540;2024-01-30T07:49:04;14.85;;;7.20;;
82873;SDS011;72647;51.622;7.540;2024-01-30T07:51:05;17.13;;;8.00;;
82873;SDS011;72647;51.622;7.540;2024-01-30T07:53:05;14.30;;;7.88;;
82873;SDS011;72647;51.622;7.540;2024-01-30T07:55:05;15.87;;;7.73;;
82873;SDS011;72647;51.622;7.540;2024-01-30T07:57:07;15.23;;;6.95;;
82873;SDS011;72647;51.622;7.540;2024-01-30T07:59:11;14.07;;;7.83;;
82873;SDS011;72647;51.622;7.540;2024-01-30T08:01:11;14.40;;;7.13;;
82873;SDS011;72647;51.622;7.540;2024-01-30T08:03:11;13.50;;;7.63;;
82873;SDS011;72647;51.622;7.540;2024-01-30T08:05:12;12.40;;;7.03;;
82873;SDS011;72647;51.622;7.540;2024-01-30T08:07:15;13.43;;;7.72;;
82873;SDS011;72647;51.622;7.540;2024-01-30T08:09:15;17.00;;;8.25;;
82873;SDS011;72647;51.622;7.540;2024-01-30T08:11:15;15.00;;;7.27;;
82873;SDS011;72647;51.622;7.540;2024-01-30T08:13:15;13.27;;;7.93;;
82873;SDS011;72647;51.622;7.540;2024-01-30T08:15:16;13.77;;;7.30;;
82873;SDS011;72647;51.622;7.540;2024-01-30T08:17:16;14.10;;;6.83;;
82873;SDS011;72647;51.622;7.540;2024-01-30T08:19:16;14.70;;;7.50;;
82873;SDS011;72647;51.622;7.540;2024-01-30T08:21:17;12.82;;;7.10;;
82873;SDS011;72647;51.622;7.540;2024-01-30T08:23:17;13.27;;;7.40;;
82873;SDS011;72647;51.622;7.540;2024-01-30T08:25:17;15.30;;;8.23;;
82873;SDS011;72647;51.622;7.540;2024-01-30T08:27:18;10.48;;;6.32;;
82873;SDS011;72647;51.622;7.540;2024-01-30T08:29:18;10.98;;;6.93;;
82873;SDS011;72647;51.622;7.540;2024-01-30T08:31:19;11.45;;;6.53;;
82873;SDS011;72647;51.622;7.540;2024-01-30T08:33:19;12.70;;;6.67;;
82873;SDS011;72647;51.622;7.540;2024-01-30T08:35:19;12.17;;;6.80;;
82873;SDS011;72647;51.622;7.540;2024-01-30T08:37:19;11.07;;;6.40;;
82873;SDS011;72647;51.622;7.540;2024-01-30T08:39:19;10.77;;;6.40;;
82873;SDS011;72647;51.622;7.540;2024-01-30T08:41:20;13.13;;;6.23;;
82873;SDS011;72647;51.622;7.540;2024-01-30T08:43:20;12.67;;;6.33;;
82873;SDS011;72647;51.622;7.540;2024-01-30T08:45:20;13.33;;;6.13;;
82873;SDS011;72647;51.622;7.540;2024-01-30T08:47:21;11.10;;;5.87;;
82873;SDS011;72647;51.622;7.540;2024-01-30T08:49:21;14.00;;;5.88;;
82873;SDS011;72647;51.622;7.540;2024-01-30T08:51:23;10.17;;;5.83;;
82873;SDS011;72647;51.622;7.540;2024-01-30T08:53:23;10.90;;;5.93;;
82873;SDS011;72647;51.622;7.540;2024-01-30T08:55:23;10.23;;;5.93;;
82873;SDS011;72647;51.622;7.540;2024-01-30T08:57:23;11.85;;;6.13;;
82873;SDS011;72647;51.622;7.540;2024-01-30T08:59:24;9.87;;;6.40;;
82873;SDS011;72647;51.622;7.540;2024-01-30T09:01:24;11.10;;;6.50;;
82873;SDS011;72647;51.622;7.540;2024-01-30T09:03:25;9.82;;;5.90;;
82873;SDS011;72647;51.622;7.540;2024-01-30T09:05:25;10.93;;;6.03;;
82873;SDS011;72647;51.622;7.540;2024-01-30T09:07:25;11.07;;;6.03;;
82873;SDS011;72647;51.622;7.540;2024-01-30T09:09:25;9.73;;;6.47;;
82873;SDS011;72647;51.622;7.540;2024-01-30T09:11:25;10.17;;;6.23;;
82873;SDS011;72647;51.622;7.540;2024-01-30T09:13:26;12.53;;;6.67;;
82873;SDS011;72647;51.622;7.540;2024-01-30T09:15:26;12.33;;;6.73;;
82873;SDS011;72647;51.622;7.540;2024-01-30T09:17:27;15.45;;;7.18;;
82873;SDS011;72647;51.622;7.540;2024-01-30T09:19:27;13.23;;;6.60;;
82873;SDS011;72647;51.622;7.540;2024-01-30T09:21:27;8.33;;;5.13;;
82873;SDS011;72647;51.622;7.540;2024-01-30T09:23:27;9.65;;;5.45;;
82873;SDS011;72647;51.622;7.540;2024-01-30T09:25:28;9.85;;;5.30;;
82873;SDS011;72647;51.622;7.540;2024-01-30T09:27:28;9.80;;;4.67;;
82873;SDS011;72647;51.622;7.540;2024-01-30T09:29:28;9.27;;;5.13;;
82873;SDS011;72647;51.622;7.540;2024-01-30T09:31:28;11.93;;;4.67;;
82873;SDS011;72647;51.622;7.540;2024-01-30T09:33:28;7.30;;;4.50;;
82873;SDS011;72647;51.622;7.540;2024-01-30T09:35:29;8.13;;;4.50;;
82873;SDS011;72647;51.622;7.540;2024-01-30T09:37:30;7.70;;;4.68;;
82873;SDS011;72647;51.622;7.540;2024-01-30T09:39:30;8.33;;;4.80;;
82873;SDS011;72647;51.622;7.540;2024-01-30T09:41:31;9.20;;;4.38;;
82873;SDS011;72647;51.622;7.540;2024-01-30T09:43:32;8.13;;;4.30;;
82873;SDS011;72647;51.622;7.540;2024-01-30T09:45:33;9.48;;;5.07;;
82873;SDS011;72647;51.622;7.540;2024-01-30T09:47:40;8.43;;;4.32;;
82873;SDS011;72647;51.622;7.540;2024-01-30T09:49:42;7.70;;;3.92;;
82873;SDS011;72647;51.622;7.540;2024-01-30T09:51:44;7.53;;;4.35;;
82873;SDS011;72647;51.622;7.540;2024-01-30T09:53:44;8.15;;;4.07;;
82873;SDS011;72647;51.622;7.540;2024-01-30T09:55:45;7.03;;;3.90;;
82873;SDS011;72647;51.622;7.540;2024-01-30T09:57:45;9.25;;;4.22;;
82873;SDS011;72647;51.622;7.540;2024-01-30T09:59:46;8.35;;;4.03;;
82873;SDS011;72647;51.622;7.540;2024-01-30T10:01:46;9.43;;;4.27;;
82873;SDS011;72647;51.622;7.540;2024-01-30T10:03:47;8.90;;;4.32;;
82873;SDS011;72647;51.622;7.540;2024-01-30T10:05:53;7.23;;;3.90;;
82873;SDS011;72647;51.622;7.540;2024-01-30T10:09:55;6.72;;;3.88;;
82873;SDS011;72647;51.622;7.540;2024-01-30T10:11:56;10.98;;;4.10;;
82873;SDS011;72647;51.622;7.540;2024-01-30T10:13:57;9.68;;;4.47;;
82873;SDS011;72647;51.622;7.540;2024-01-30T10:15:57;9.53;;;4.47;;
82873;SDS011;72647;51.622;7.540;2024-01-30T10:17:58;7.40;;;4.70;;
82873;SDS011;72647;51.622;7.540;2024-01-30T10:19:58;7.13;;;3.63;;
82873;SDS011;72647;51.622;7.540;2024-01-30T10:21:59;9.90;;;4.50;;
82873;SDS011;72647;51.622;7.540;2024-01-30T10:24:00;9.00;;;4.30;;
82873;SDS011;72647;51.622;7.540;2024-01-30T10:26:00;10.20;;;4.40;;
82873;SDS011;72647;51.622;7.540;2024-01-30T10:28:00;8.07;;;4.27;;
82873;SDS011;72647;51.622;7.540;2024-01-30T10:30:00;9.23;;;4.00;;
82873;SDS011;72647;51.622;7.540;2024-01-30T10:32:01;7.78;;;4.22;;
82873;SDS011;72647;51.622;7.540;2024-01-30T10:36:03;8.43;;;3.73;;
82873;SDS011;72647;51.622;7.540;2024-01-30T10:38:04;7.95;;;4.30;;
82873;SDS011;72647;51.622;7.540;2024-01-30T10:40:06;7.07;;;4.03;;
82873;SDS011;72647;51.622;7.540;2024-01-30T10:44:10;6.07;;;3.43;;
82873;SDS011;72647;51.622;7.540;2024-01-30T10:48:12;7.43;;;3.80;;
82873;SDS011;72647;51.622;7.540;2024-01-30T10:50:13;6.68;;;3.67;;
82873;SDS011;72647;51.622;7.540;2024-01-30T10:52:14;9.20;;;4.53;;
82873;SDS011;72647;51.622;7.540;2024-01-30T10:54:14;7.13;;;4.20;;
82873;SDS011;72647;51.622;7.540;2024-01-30T10:56:16;8.85;;;4.20;;
82873;SDS011;72647;51.622;7.540;2024-01-30T10:58:16;7.05;;;3.90;;
82873;SDS011;72647;51.622;7.540;2024-01-30T11:00:16;8.55;;;4.50;;
82873;SDS011;72647;51.622;7.540;2024-01-30T11:02:19;7.68;;;3.75;;
82873;SDS011;72647;51.622;7.540;2024-01-30T11:04:20;7.20;;;4.13;;
82873;SDS011;72647;51.622;7.540;2024-01-30T11:06:24;7.63;;;3.85;;
82873;SDS011;72647;51.622;7.540;2024-01-30T11:08:25;6.60;;;3.88;;
82873;SDS011;72647;51.622;7.540;2024-01-30T11:10:27;7.50;;;3.90;;
82873;SDS011;72647;51.622;7.540;2024-01-30T11:14:30;7.20;;;4.37;;
82873;SDS011;72647;51.622;7.540;2024-01-30T11:16:31;8.77;;;4.22;;
82873;SDS011;72647;51.622;7.540;2024-01-30T11:18:32;7.63;;;4.22;;
82873;SDS011;72647;51.622;7.540;2024-01-30T11:20:33;7.47;;;4.53;;
82873;SDS011;72647;51.622;7.540;2024-01-30T11:22:35;7.05;;;3.65;;
82873;SDS011;72647;51.622;7.540;2024-01-30T11:26:36;8.30;;;4.10;;
82873;SDS011;72647;51.622;7.540;2024-01-30T11:28:37;9.10;;;4.43;;
82873;SDS011;72647;51.622;7.540;2024-01-30T11:30:37;8.50;;;4.07;;
82873;SDS011;72647;51.622;7.540;2024-01-30T11:34:39;10.23;;;3.80;;
82873;SDS011;72647;51.622;7.540;2024-01-30T11:36:40;10.00;;;4.40;;
82873;SDS011;72647;51.622;7.540;2024-01-30T11:38:43;7.15;;;3.60;;
82873;SDS011;72647;51.622;7.540;2024-01-30T11:40:45;10.23;;;3.70;;
82873;SDS011;72647;51.622;7.540;2024-01-30T11:44:48;9.00;;;3.70;;
82873;SDS011;72647;51.622;7.540;2024-01-30T11:46:48;6.90;;;3.00;;
82873;SDS011;72647;51.622;7.540;2024-01-30T11:50:49;7.93;;;3.83;;
82873;SDS011;72647;51.622;7.540;2024-01-30T11:52:50;8.90;;;3.67;;
82873;SDS011;72647;51.622;7.540;2024-01-30T11:56:51;7.67;;;3.50;;
82873;SDS011;72647;51.622;7.540;2024-01-30T11:58:51;12.93;;;3.90;;
82873;SDS011;72647;51.622;7.540;2024-01-30T12:00:54;7.60;;;3.70;;
82873;SDS011;72647;51.622;7.540;2024-01-30T12:02:55;8.50;;;4.05;;
82873;SDS011;72647;51.622;7.540;2024-01-30T12:04:55;9.77;;;4.23;;
82873;SDS011;72647;51.622;7.540;2024-01-30T12:06:56;5.53;;;3.50;;
82873;SDS011;72647;51.622;7.540;2024-01-30T12:09:00;6.40;;;4.30;;
82873;SDS011;72647;51.622;7.540;2024-01-30T12:11:00;8.10;;;3.78;;
82873;SDS011;72647;51.622;7.540;2024-01-30T12:13:06;5.80;;;3.10;;
82873;SDS011;72647;51.622;7.540;2024-01-30T12:15:06;8.50;;;3.72;;
82873;SDS011;72647;51.622;7.540;2024-01-30T12:17:07;10.32;;;3.95;;
82873;SDS011;72647;51.622;7.540;2024-01-30T12:19:08;7.25;;;3.67;;
82873;SDS011;72647;51.622;7.540;2024-01-30T12:21:08;9.50;;;3.80;;
82873;SDS011;72647;51.622;7.540;2024-01-30T12:23:09;10.43;;;4.27;;